Time;durP1;ratioP1;P1;durP2;ratioP2;P2;SDS_P1;SDS_P2;PMS_P1;PMS_P2;Temp;Humidity;BMP_temperature;BMP_pressure;BME280_temperature;BME280_humidity;BME280_pressure;Samples;Min_cycle;Max_cycle;Signal;HPM_P1;HPM_P2
2021/12/01 00:01:32;;;;;;;0.20;0.20;;;;;;;22.94;8.29;97287.50;5094777;28;20074;-69
2021/12/01 00:03:57;;;;;;;0.32;0.30;;;;;;;22.95;8.16;97297.22;5107850;28;20023;-69
2021/12/01 00:06:22;;;;;;;0.20;0.20;;;;;;;22.96;8.29;97304.28;5114595;28;20028;-69
2021/12/01 00:08:48;;;;;;;0.28;0.28;;;;;;;22.92;8.00;97302.56;5114793;28;20035;-69
2021/12/01 00:11:13;;;;;;;0.45;0.40;;;;;;;22.96;8.41;97309.72;5114887;28;20034;-69
2021/12/01 00:13:38;;;;;;;0.30;0.30;;;;;;;22.98;8.20;97312.88;5096566;28;20077;-69
2021/12/01 00:16:06;;;;;;;0.30;0.30;;;;;;;22.97;8.14;97315.94;5115212;28;20482;-69
2021/12/01 00:18:31;;;;;;;0.30;0.30;;;;;;;22.93;8.21;97320.50;5114720;28;20070;-69
2021/12/01 00:20:57;;;;;;;0.30;0.20;;;;;;;22.92;8.25;97318.91;5114546;28;20085;-69
2021/12/01 00:23:23;;;;;;;0.30;0.30;;;;;;;22.91;8.08;97322.78;5114741;28;20125;-69
2021/12/01 00:25:48;;;;;;;0.28;0.28;;;;;;;22.90;8.13;97324.69;5114735;28;20512;-69
2021/12/01 00:28:13;;;;;;;0.43;0.40;;;;;;;22.92;8.17;97322.44;5114397;28;20092;-69
2021/12/01 00:30:40;;;;;;;0.35;0.30;;;;;;;22.93;8.21;97326.75;5114412;28;20034;-70
2021/12/01 00:33:07;;;;;;;0.40;0.40;;;;;;;22.93;8.02;97331.41;5114548;28;20056;-70
2021/12/01 00:35:33;;;;;;;0.30;0.30;;;;;;;22.91;8.23;97337.19;5096433;28;20024;-69
2021/12/01 00:37:58;;;;;;;0.30;0.30;;;;;;;22.91;8.09;97342.63;5095998;28;20490;-69
2021/12/01 00:40:25;;;;;;;0.25;0.25;;;;;;;22.92;7.97;97346.16;5114442;28;20033;-69
2021/12/01 00:42:50;;;;;;;0.25;0.25;;;;;;;22.91;8.05;97344.56;5114437;28;20028;-69
2021/12/01 00:45:18;;;;;;;0.30;0.30;;;;;;;22.90;8.05;97342.97;5114370;28;20350;-69
2021/12/01 00:47:46;;;;;;;0.25;0.25;;;;;;;22.89;8.22;97347.63;5114481;28;20457;-69
2021/12/01 00:50:23;;;;;;;0.30;0.30;;;;;;;22.92;8.04;97351.59;5114219;28;20044;-69
2021/12/01 00:52:50;;;;;;;0.30;0.20;;;;;;;22.89;8.07;97353.09;5114169;28;20016;-69
2021/12/01 00:55:15;;;;;;;0.35;0.22;;;;;;;22.87;8.19;97349.91;5114262;28;20023;-69
2021/12/01 00:57:41;;;;;;;0.20;0.20;;;;;;;22.87;8.07;97352.63;5114143;28;20020;-69
2021/12/01 01:00:07;;;;;;;0.30;0.30;;;;;;;22.88;8.14;97355.00;5113881;28;20582;-69
2021/12/01 01:02:32;;;;;;;0.32;0.30;;;;;;;22.88;8.14;97362.38;5113875;28;20114;-69
2021/12/01 01:04:58;;;;;;;0.47;0.40;;;;;;;22.88;8.11;97356.94;5093392;28;20032;-69
2021/12/01 01:07:23;;;;;;;0.30;0.30;;;;;;;22.88;8.07;97357.72;5093752;28;20024;-69
2021/12/01 01:09:49;;;;;;;0.30;0.30;;;;;;;22.88;8.08;97367.81;5094023;28;20024;-70
2021/12/01 01:17:42;;;;;;;0.22;0.22;;;;;;;22.89;8.10;97377.59;5093510;28;20085;-69
2021/12/01 01:20:12;;;;;;;0.30;0.30;;;;;;;22.91;7.96;97377.25;5092974;28;20048;-69
2021/12/01 01:22:38;;;;;;;0.40;0.40;;;;;;;22.87;8.11;97385.31;5093306;28;20020;-69
2021/12/01 01:25:04;;;;;;;0.32;0.30;;;;;;;22.88;8.20;97387.66;5093491;28;20036;-69
2021/12/01 01:27:29;;;;;;;0.28;0.28;;;;;;;22.86;8.09;97392.66;5093547;28;20410;-69
2021/12/01 01:29:55;;;;;;;0.30;0.30;;;;;;;22.86;7.97;97389.16;5093440;28;20024;-69
2021/12/01 01:32:20;;;;;;;0.30;0.30;;;;;;;22.85;8.08;97393.00;5093401;28;20024;-69
2021/12/01 01:34:46;;;;;;;0.77;0.40;;;;;;;22.84;8.18;97392.22;5093430;28;20077;-69
2021/12/01 01:37:12;;;;;;;0.25;0.25;;;;;;;22.86;7.99;97402.78;5093487;28;20093;-69
2021/12/01 01:39:38;;;;;;;0.25;0.25;;;;;;;22.86;7.90;97402.78;5093038;28;20423;-69
2021/12/01 01:42:04;;;;;;;0.32;0.30;;;;;;;22.84;8.03;97405.84;5097403;28;20028;-69
2021/12/01 01:44:31;;;;;;;0.30;0.30;;;;;;;22.84;7.90;97410.50;5097340;28;20443;-69
2021/12/01 01:46:56;;;;;;;0.43;0.40;;;;;;;22.83;7.91;97414.34;5097073;28;20020;-69
2021/12/01 01:49:34;;;;;;;0.20;0.20;;;;;;;22.83;8.02;97422.50;5097332;28;20020;-69
2021/12/01 01:52:00;;;;;;;0.40;0.30;;;;;;;22.85;7.94;97415.59;5097147;28;20024;-69
2021/12/01 01:54:25;;;;;;;0.47;0.30;;;;;;;22.81;7.85;97422.06;5097056;28;20029;-69
2021/12/01 01:56:51;;;;;;;0.20;0.20;;;;;;;22.86;7.92;97417.16;5096635;28;20458;-69
2021/12/01 01:59:16;;;;;;;0.30;0.30;;;;;;;22.84;7.83;97424.09;5097075;28;20028;-69
2021/12/01 02:01:44;;;;;;;0.40;0.40;;;;;;;22.85;7.75;97423.78;5097240;28;20027;-69
2021/12/01 02:04:15;;;;;;;0.30;0.30;;;;;;;22.82;7.86;97423.66;5109853;28;20041;-69
2021/12/01 02:06:40;;;;;;;0.30;0.30;;;;;;;22.81;7.96;97427.50;5117017;28;20104;-69
2021/12/01 02:09:06;;;;;;;0.30;0.30;;;;;;;22.84;7.82;97432.28;5116907;28;20023;-69
2021/12/01 02:11:31;;;;;;;0.30;0.30;;;;;;;22.80;7.84;97431.34;5099101;28;20034;-69
2021/12/01 02:13:57;;;;;;;0.30;0.30;;;;;;;22.82;7.84;97437.28;5117035;28;20026;-69
2021/12/01 02:16:22;;;;;;;0.50;0.32;;;;;;;22.82;7.86;97445.44;5117128;28;20016;-69
2021/12/01 02:18:48;;;;;;;0.20;0.20;;;;;;;22.82;7.68;97440.00;5116599;28;20028;-69
2021/12/01 02:21:18;;;;;;;0.25;0.25;;;;;;;22.81;7.84;97438.41;5117029;28;20063;-69
2021/12/01 02:23:48;;;;;;;0.30;0.30;;;;;;;22.83;7.89;97444.28;5116816;28;20020;-70
2021/12/01 02:26:14;;;;;;;0.30;0.22;;;;;;;22.81;7.86;97454.72;5117048;28;20039;-70
2021/12/01 02:28:41;;;;;;;0.40;0.32;;;;;;;22.78;7.93;97449.97;5116904;28;20046;-70
2021/12/01 02:31:06;;;;;;;0.30;0.30;;;;;;;22.80;7.78;97448.50;5098763;28;20023;-69
2021/12/01 02:33:31;;;;;;;0.20;0.20;;;;;;;22.83;7.72;97447.00;5117086;28;20028;-69
2021/12/01 02:35:57;;;;;;;0.30;0.30;;;;;;;22.82;7.84;97453.59;5116668;28;20530;-69
2021/12/01 02:38:22;;;;;;;0.30;0.30;;;;;;;22.82;7.71;97448.16;5116887;28;20024;-69
2021/12/01 02:40:49;;;;;;;0.38;0.38;;;;;;;22.81;7.90;97454.72;5116837;28;20016;-69
2021/12/01 02:43:15;;;;;;;0.30;0.28;;;;;;;22.82;7.65;97456.31;5116655;28;20020;-69
2021/12/01 02:45:40;;;;;;;0.30;0.30;;;;;;;22.82;7.68;97459.84;5116624;28;20031;-69
2021/12/01 02:48:13;;;;;;;0.30;0.30;;;;;;;22.80;7.73;97469.47;5117217;28;20042;-69
2021/12/01 02:50:39;;;;;;;0.30;0.30;;;;;;;22.79;7.56;97467.91;5116613;28;20028;-69
2021/12/01 02:53:05;;;;;;;0.20;0.20;;;;;;;22.79;7.73;97474.13;5116570;28;20511;-68
2021/12/01 02:55:30;;;;;;;0.30;0.30;;;;;;;22.80;7.66;97480.34;5117881;28;20028;-69
2021/12/01 02:57:59;;;;;;;0.20;0.20;;;;;;;22.80;7.71;97485.78;5082218;28;20032;-69
2021/12/01 03:00:24;;;;;;;0.52;0.30;;;;;;;22.79;7.70;97495.13;5116255;28;20050;-69
2021/12/01 03:02:51;;;;;;;0.30;0.30;;;;;;;22.82;7.69;97494.44;5115726;28;20027;-70
2021/12/01 03:05:16;;;;;;;0.40;0.40;;;;;;;22.79;7.80;97495.91;5095886;28;20028;-69
2021/12/01 03:07:42;;;;;;;0.43;0.40;;;;;;;22.79;7.64;97489.66;5061018;28;20077;-69
2021/12/01 03:10:08;;;;;;;0.30;0.30;;;;;;;22.77;7.92;97506.34;5095661;28;20078;-69
2021/12/01 03:12:35;;;;;;;0.40;0.40;;;;;;;22.79;7.59;97506.00;5095360;28;20028;-69
2021/12/01 03:15:00;;;;;;;0.40;0.35;;;;;;;22.78;7.67;97498.97;5095245;28;20074;-69
2021/12/01 03:17:26;;;;;;;0.47;0.30;;;;;;;22.79;7.64;97500.56;5095576;28;20028;-69
2021/12/01 03:19:52;;;;;;;0.40;0.35;;;;;;;22.79;7.59;97504.06;5073726;28;20052;-69
2021/12/01 03:22:17;;;;;;;0.30;0.30;;;;;;;22.78;7.76;97502.47;5074941;28;20082;-69
2021/12/01 03:24:42;;;;;;;0.63;0.40;;;;;;;22.80;7.72;97507.59;5075210;28;20036;-69
2021/12/01 03:27:08;;;;;;;0.40;0.40;;;;;;;22.77;7.53;97509.06;5075221;28;20371;-69
2021/12/01 03:29:33;;;;;;;0.40;0.40;;;;;;;22.79;7.58;97506.00;5074831;28;20536;-69
2021/12/01 03:31:59;;;;;;;0.28;0.28;;;;;;;22.79;7.72;97516.91;5075215;28;20032;-69
2021/12/01 03:34:24;;;;;;;0.20;0.20;;;;;;;22.77;7.62;97509.06;5074973;28;20365;-69
2021/12/01 03:36:49;;;;;;;0.20;0.20;;;;;;;22.77;7.63;97511.78;5075068;28;20478;-71
2021/12/01 03:39:15;;;;;;;0.25;0.25;;;;;;;22.77;7.70;97517.22;5073952;28;20028;-69
2021/12/01 03:41:40;;;;;;;0.30;0.30;;;;;;;22.76;7.73;97518.34;5074794;28;20471;-69
2021/12/01 03:44:06;;;;;;;0.35;0.30;;;;;;;22.75;7.65;97519.50;5056687;28;20041;-69
2021/12/01 03:46:31;;;;;;;0.40;0.40;;;;;;;22.76;7.69;97523.00;5074928;28;20044;-68
2021/12/01 03:48:57;;;;;;;0.30;0.30;;;;;;;22.74;7.87;97528.00;5075358;28;20055;-69
2021/12/01 03:51:22;;;;;;;0.32;0.30;;;;;;;22.73;7.74;97531.84;5074958;28;20371;-69
2021/12/01 03:53:49;;;;;;;0.45;0.38;;;;;;;22.73;7.72;97527.19;5074387;28;20028;-70
2021/12/01 03:56:14;;;;;;;0.63;0.30;;;;;;;22.73;7.75;97524.47;5074532;28;20036;-69
2021/12/01 03:58:39;;;;;;;0.20;0.20;;;;;;;22.74;7.67;97526.06;5074533;28;20371;-69
2021/12/01 04:01:05;;;;;;;0.30;0.30;;;;;;;22.69;7.74;97529.78;5074212;28;20020;-70
2021/12/01 04:03:30;;;;;;;0.60;0.40;;;;;;;22.65;8.04;97528.88;5079335;28;20032;-69
2021/12/01 04:05:56;;;;;;;0.43;0.43;;;;;;;22.78;7.93;97539.78;5094943;28;20024;-69
2021/12/01 04:08:21;;;;;;;0.30;0.30;;;;;;;22.80;8.03;97534.81;5077362;28;20362;-69
2021/12/01 04:10:46;;;;;;;0.40;0.40;;;;;;;22.87;7.91;97540.50;5094436;28;20434;-68
2021/12/01 04:13:12;;;;;;;0.40;0.40;;;;;;;22.92;7.84;97544.94;5095080;28;20035;-69
2021/12/01 04:15:37;;;;;;;0.30;0.30;;;;;;;22.90;8.07;97550.69;5095063;28;20024;-69
2021/12/01 04:18:03;;;;;;;0.38;0.30;;;;;;;22.92;7.94;97547.66;5094543;28;20392;-69
2021/12/01 04:20:28;;;;;;;0.30;0.30;;;;;;;22.99;7.93;97559.59;5110238;28;20043;-69
2021/12/01 04:22:53;;;;;;;0.30;0.30;;;;;;;22.98;8.03;97559.91;5114342;28;20069;-69
2021/12/01 04:25:19;;;;;;;0.40;0.30;;;;;;;23.01;7.97;97557.31;5114759;28;20035;-69
2021/12/01 04:27:44;;;;;;;0.80;0.40;;;;;;;23.05;8.01;97560.97;5114558;28;20042;-71
2021/12/01 04:30:11;;;;;;;0.63;0.22;;;;;;;23.08;8.02;97566.88;5114678;28;20454;-69
2021/12/01 04:32:36;;;;;;;0.40;0.40;;;;;;;23.13;7.98;97564.75;5114233;28;20022;-69
2021/12/01 04:35:03;;;;;;;0.30;0.30;;;;;;;23.15;8.18;97572.56;5114294;28;20023;-69
2021/12/01 04:37:28;;;;;;;0.47;0.30;;;;;;;23.17;7.93;97575.75;5114570;28;20419;-69
2021/12/01 04:39:53;;;;;;;0.20;0.20;;;;;;;23.21;7.98;97576.66;5114557;28;20058;-69
2021/12/01 04:42:19;;;;;;;0.60;0.25;;;;;;;23.23;8.04;97580.63;5096534;28;20024;-68
2021/12/01 04:44:45;;;;;;;0.30;0.30;;;;;;;23.21;7.99;97577.44;5114040;28;20027;-69
2021/12/01 04:47:14;;;;;;;0.32;0.30;;;;;;;23.27;8.12;97585.38;5114259;28;20024;-69
2021/12/01 04:49:39;;;;;;;0.30;0.30;;;;;;;23.28;7.93;97579.59;5114398;28;20172;-69
2021/12/01 04:52:05;;;;;;;0.20;0.20;;;;;;;23.32;8.17;97587.88;5114443;28;20039;-69
2021/12/01 04:54:31;;;;;;;0.35;0.35;;;;;;;23.33;7.85;97587.53;5095531;28;20497;-69
2021/12/01 04:56:57;;;;;;;0.43;0.30;;;;;;;23.36;7.99;97594.25;5114273;28;20027;-69
2021/12/01 04:59:22;;;;;;;0.30;0.30;;;;;;;23.37;8.05;97591.19;5114102;28;20023;-69
2021/12/01 05:01:48;;;;;;;0.30;0.30;;;;;;;23.39;8.09;97569.84;5114186;28;20454;-69
2021/12/01 05:04:13;;;;;;;0.75;0.32;;;;;;;23.37;8.04;97588.47;5103488;28;20028;-69
2021/12/01 05:06:39;;;;;;;0.30;0.30;;;;;;;23.43;8.03;97581.66;5093656;28;20081;-69
2021/12/01 05:09:05;;;;;;;0.28;0.28;;;;;;;23.44;8.09;97579.72;5093945;28;20081;-70
2021/12/01 05:11:31;;;;;;;0.22;0.22;;;;;;;23.47;8.18;97591.88;5094704;28;20028;-70
2021/12/01 05:13:56;;;;;;;1.55;0.30;;;;;;;23.49;8.18;97598.59;5098413;28;20028;-70
2021/12/01 05:16:21;;;;;;;0.40;0.40;;;;;;;23.52;7.90;97599.81;5097330;28;20032;-69
2021/12/01 05:18:47;;;;;;;0.20;0.20;;;;;;;23.54;8.17;97612.00;5098064;28;20024;-69
2021/12/01 05:21:12;;;;;;;0.40;0.30;;;;;;;23.55;7.94;97612.78;5097794;28;20023;-69
2021/12/01 05:23:38;;;;;;;0.30;0.30;;;;;;;23.51;8.34;97611.84;5098112;28;20025;-70
2021/12/01 05:26:04;;;;;;;0.70;0.47;;;;;;;23.58;7.96;97617.53;5097617;28;20028;-70
2021/12/01 05:28:29;;;;;;;0.45;0.30;;;;;;;23.58;8.00;97623.78;5098348;28;20028;-70
2021/12/01 05:30:55;;;;;;;1.10;0.20;;;;;;;23.58;8.00;97623.00;5097728;28;20080;-69
2021/12/01 05:33:21;;;;;;;0.30;0.30;;;;;;;23.60;8.03;97632.41;5079713;28;20028;-69
2021/12/01 05:35:46;;;;;;;0.63;0.30;;;;;;;23.64;8.21;97632.53;5097175;28;20462;-69
2021/12/01 05:38:12;;;;;;;0.30;0.30;;;;;;;23.64;8.27;97648.88;5097553;28;20073;-69
2021/12/01 05:40:37;;;;;;;0.30;0.30;;;;;;;23.66;8.00;97637.63;5097049;28;20043;-69
2021/12/01 05:43:03;;;;;;;0.63;0.40;;;;;;;23.63;8.18;97641.84;5079087;28;20446;-70
2021/12/01 05:45:28;;;;;;;0.85;0.40;;;;;;;23.67;8.07;97648.19;5097115;28;20043;-69
2021/12/01 05:47:54;;;;;;;2.88;1.50;;;;;;;23.70;8.25;97646.72;5097609;28;20047;-69
2021/12/01 05:50:19;;;;;;;3.65;1.60;;;;;;;23.71;8.13;97648.31;5078891;28;20478;-69
2021/12/01 05:52:44;;;;;;;1.92;1.25;;;;;;;23.71;8.17;97660.00;5097150;28;20035;-69
2021/12/01 05:55:10;;;;;;;1.88;1.15;;;;;;;23.72;8.17;97658.88;5097064;28;20024;-68
2021/12/01 05:57:36;;;;;;;1.92;0.73;;;;;;;23.74;8.19;97658.53;5096940;28;20028;-68
2021/12/01 06:00:04;;;;;;;0.70;0.60;;;;;;;23.74;8.13;97659.34;5078695;28;20032;-69
2021/12/01 06:02:29;;;;;;;1.08;0.70;;;;;;;23.77;8.48;97664.09;5097055;28;20115;-69
2021/12/01 06:04:54;;;;;;;1.00;0.57;;;;;;;23.78;8.33;97671.16;5112920;28;20038;-71
2021/12/01 06:07:20;;;;;;;1.30;0.45;;;;;;;23.78;8.44;97681.25;5117522;28;20469;-69
2021/12/01 06:09:45;;;;;;;0.47;0.40;;;;;;;23.81;8.37;97688.78;5117258;28;20020;-68
2021/12/01 06:12:11;;;;;;;0.50;0.47;;;;;;;23.85;8.34;97681.50;5117194;28;20023;-69
2021/12/01 06:14:38;;;;;;;1.02;0.38;;;;;;;23.84;8.22;97679.16;5117226;28;20312;-69
2021/12/01 06:17:03;;;;;;;0.40;0.40;;;;;;;23.80;8.39;97706.25;5117235;28;20454;-69
2021/12/01 06:19:29;;;;;;;1.13;0.50;;;;;;;23.84;8.17;97700.97;5116455;28;20054;-69
2021/12/01 06:21:54;;;;;;;2.58;0.30;;;;;;;23.91;8.30;97706.63;5116664;28;20026;-68
2021/12/01 06:24:20;;;;;;;0.32;0.30;;;;;;;23.89;8.26;97701.53;5116954;28;20035;-68
2021/12/01 06:26:45;;;;;;;0.73;0.35;;;;;;;23.89;8.21;97706.19;5116286;28;20019;-69
2021/12/01 06:29:10;;;;;;;2.78;1.70;;;;;;;23.93;8.54;97709.81;5116581;28;20417;-69
2021/12/01 06:31:36;;;;;;;1.48;1.00;;;;;;;23.86;8.25;97717.78;5117705;28;20073;-68
2021/12/01 06:34:02;;;;;;;0.93;0.50;;;;;;;23.91;8.52;97717.56;5116521;28;20457;-69
2021/12/01 06:36:29;;;;;;;1.92;0.88;;;;;;;23.87;8.41;97708.44;5116452;28;20038;-68
2021/12/01 06:38:55;;;;;;;2.58;0.57;;;;;;;23.93;8.60;97716.06;5116628;28;20024;-69
2021/12/01 06:41:20;;;;;;;0.75;0.52;;;;;;;23.93;8.34;97718.00;5116230;28;20096;-68
2021/12/01 06:43:45;;;;;;;0.50;0.40;;;;;;;23.98;8.20;97728.69;5098414;28;20024;-68
2021/12/01 06:46:11;;;;;;;2.95;0.50;;;;;;;23.98;8.36;97734.13;5116583;28;20373;-68
2021/12/01 06:48:36;;;;;;;1.50;1.00;;;;;;;24.00;8.57;97734.59;5116770;28;20023;-69
2021/12/01 06:51:02;;;;;;;2.60;0.85;;;;;;;24.03;8.32;97738.59;5116177;28;20073;-69
2021/12/01 06:53:27;;;;;;;1.80;1.00;;;;;;;24.03;8.38;97747.56;5116153;28;20039;-68
2021/12/01 06:55:53;;;;;;;3.83;1.38;;;;;;;24.04;8.29;97738.22;5116136;28;20194;-68
2021/12/01 06:58:19;;;;;;;1.88;0.80;;;;;;;24.06;8.31;97741.41;5116161;28;20064;-68
2021/12/01 07:00:44;;;;;;;15.43;5.47;;;;;;;24.10;8.26;97747.78;5116259;28;20023;-67
2021/12/01 07:03:10;;;;;;;14.05;5.22;;;;;;;24.12;8.62;97745.50;5115777;28;20023;-69
2021/12/01 07:05:36;;;;;;;14.80;6.32;;;;;;;24.14;8.82;97743.22;5095871;28;20024;-68
2021/12/01 07:08:02;;;;;;;13.93;4.63;;;;;;;24.14;8.61;97753.34;5096157;28;20051;-69
2021/12/01 07:10:27;;;;;;;14.20;4.25;;;;;;;24.12;8.43;97750.16;5096256;28;20467;-68
2021/12/01 07:12:53;;;;;;;13.75;4.15;;;;;;;24.05;8.44;97750.72;5095666;28;20287;-68
2021/12/01 07:15:18;;;;;;;12.10;4.13;;;;;;;24.16;8.49;97751.88;5095491;28;20024;-69
2021/12/01 07:17:44;;;;;;;9.25;3.45;;;;;;;24.17;8.38;97766.31;5096226;28;20532;-69
2021/12/01 07:20:09;;;;;;;5.97;2.55;;;;;;;24.22;8.87;97757.88;5095037;28;20047;-70
2021/12/01 07:22:35;;;;;;;7.32;2.20;;;;;;;24.22;8.64;97760.63;5095514;28;20047;-69
2021/12/01 07:25:00;;;;;;;2.88;1.67;;;;;;;24.26;8.79;97766.19;5095489;28;20450;-69
2021/12/01 07:27:26;;;;;;;4.78;1.55;;;;;;;24.24;8.63;97768.47;5095175;28;20065;-69
2021/12/01 07:29:51;;;;;;;2.67;1.20;;;;;;;24.22;8.73;97774.25;5095410;28;20035;-69
2021/12/01 07:32:16;;;;;;;2.88;0.93;;;;;;;24.23;8.61;97775.84;5095120;28;20374;-71
2021/12/01 07:34:42;;;;;;;2.60;0.80;;;;;;;24.27;8.72;97784.94;5094722;28;20351;-68
2021/12/01 07:37:11;;;;;;;3.50;1.02;;;;;;;24.25;8.55;97786.41;5094918;28;20024;-71
2021/12/01 07:39:36;;;;;;;1.65;0.90;;;;;;;24.23;8.74;97788.69;5094731;28;20097;-72
2021/12/01 07:42:02;;;;;;;10.30;3.92;;;;;;;24.25;8.56;97786.41;5094677;28;20076;-71
2021/12/01 07:44:28;;;;;;;9.40;3.03;;;;;;;24.26;8.74;97779.84;5095800;28;20032;-72
2021/12/01 07:46:53;;;;;;;4.20;1.90;;;;;;;24.28;8.58;97774.81;5059480;28;20040;-70
2021/12/01 07:49:19;;;;;;;3.97;1.88;;;;;;;24.27;8.87;97779.50;5094949;28;20497;-70
2021/12/01 07:51:45;;;;;;;4.93;2.03;;;;;;;24.32;8.62;97786.66;5094584;28;20470;-70
2021/12/01 07:54:10;;;;;;;3.15;1.50;;;;;;;24.32;8.81;97784.72;5094631;28;20024;-69
2021/12/01 07:56:35;;;;;;;14.88;4.65;;;;;;;24.35;8.62;97783.22;5094986;28;20141;-70
2021/12/01 07:59:01;;;;;;;38.63;14.10;;;;;;;24.34;8.90;97787.13;5094430;28;20024;-70
2021/12/01 08:01:26;;;;;;;16.17;5.82;;;;;;;24.31;8.82;97780.38;5094508;28;20020;-70
2021/12/01 08:03:52;;;;;;;14.45;5.80;;;;;;;24.40;9.12;97790.41;5099790;28;20019;-70
2021/12/01 08:06:17;;;;;;;13.45;4.35;;;;;;;24.40;9.63;97783.00;5114829;28;20027;-71
2021/12/01 08:08:42;;;;;;;12.18;3.85;;;;;;;24.39;9.38;97786.88;5114644;28;20376;-71
2021/12/01 08:11:08;;;;;;;7.18;2.83;;;;;;;24.38;9.30;97790.75;5096529;28;20045;-71
2021/12/01 08:13:33;;;;;;;5.93;2.35;;;;;;;24.46;9.13;97781.63;5114614;28;20020;-70
2021/12/01 08:16:00;;;;;;;9.13;2.88;;;;;;;24.49;9.04;97791.06;5114586;28;20030;-71
2021/12/01 08:18:25;;;;;;;5.20;2.38;;;;;;;24.50;9.25;97788.00;5114274;28;20019;-71
2021/12/01 08:20:51;;;;;;;4.32;1.50;;;;;;;24.48;9.03;97793.00;5113821;28;20043;-70
2021/12/01 08:23:16;;;;;;;6.28;3.22;;;;;;;24.48;9.10;97798.47;5114139;28;20031;-70
2021/12/01 08:25:42;;;;;;;9.32;3.38;;;;;;;24.49;8.98;97791.88;5114350;28;20034;-70
2021/12/01 08:28:07;;;;;;;17.80;5.35;;;;;;;24.50;9.06;97798.91;5114581;28;20049;-71
2021/12/01 08:30:32;;;;;;;9.85;3.75;;;;;;;24.50;9.13;97798.91;5114756;28;20023;-70
2021/12/01 08:32:58;;;;;;;9.65;3.03;;;;;;;24.53;9.41;97803.69;5114654;28;20484;-70
2021/12/01 08:35:24;;;;;;;8.50;3.08;;;;;;;24.54;9.34;97794.41;5114659;28;20023;-70
2021/12/01 08:37:50;;;;;;;5.28;2.03;;;;;;;24.55;9.34;97806.13;5114013;28;20019;-70
2021/12/01 08:40:16;;;;;;;3.67;1.40;;;;;;;24.57;9.38;97808.50;5115336;28;20032;-69
2021/12/01 08:42:41;;;;;;;4.40;1.38;;;;;;;24.50;9.22;97804.38;5114548;28;20149;-68
2021/12/01 08:45:08;;;;;;;3.05;1.20;;;;;;;24.59;9.88;97807.00;5114781;28;20449;-72
2021/12/01 08:47:33;;;;;;;2.35;0.90;;;;;;;24.60;9.86;97803.16;5096933;28;20122;-70
2021/12/01 08:49:58;;;;;;;3.17;1.08;;;;;;;24.60;9.89;97816.00;5064355;28;20112;-70
2021/12/01 08:52:24;;;;;;;5.07;0.77;;;;;;;24.63;9.56;97823.50;5114246;28;20023;-70
2021/12/01 08:54:49;;;;;;;2.20;0.70;;;;;;;24.66;9.74;97815.41;5113693;28;20024;-70
2021/12/01 08:57:15;;;;;;;0.50;0.50;;;;;;;24.71;9.86;97817.13;5113853;28;20027;-70
2021/12/01 08:59:40;;;;;;;1.38;0.60;;;;;;;24.68;9.54;97820.53;5114441;28;20027;-70
2021/12/01 09:02:06;;;;;;;1.75;0.50;;;;;;;24.69;10.08;97833.06;5097563;28;20028;-70
2021/12/01 09:04:31;;;;;;;1.67;0.45;;;;;;;24.69;9.97;97839.31;5104093;28;20035;-71
2021/12/01 09:06:57;;;;;;;0.60;0.50;;;;;;;24.69;9.47;97839.31;5094752;28;20419;-72
2021/12/01 09:09:22;;;;;;;1.63;0.40;;;;;;;24.70;9.48;97840.91;5094150;28;20043;-70
2021/12/01 09:11:49;;;;;;;1.08;0.32;;;;;;;24.69;9.62;97839.31;5075946;28;20374;-70
2021/12/01 09:14:14;;;;;;;0.70;0.60;;;;;;;24.73;9.54;97837.50;5075715;28;20115;-69
2021/12/01 09:16:41;;;;;;;0.80;0.40;;;;;;;24.74;9.74;97849.22;5094679;28;20052;-69
2021/12/01 09:19:06;;;;;;;0.55;0.40;;;;;;;24.72;9.23;97837.84;5094105;28;20119;-70
2021/12/01 09:21:32;;;;;;;0.30;0.20;;;;;;;24.67;9.22;97840.81;5095766;28;20020;-71
2021/12/01 09:23:57;;;;;;;1.77;0.40;;;;;;;24.69;9.43;97846.72;5097195;28;20077;-71
2021/12/01 09:26:23;;;;;;;0.35;0.30;;;;;;;24.71;9.01;97850.69;5094481;28;20517;-69
2021/12/01 09:28:48;;;;;;;0.30;0.30;;;;;;;24.72;9.39;97859.69;5095220;28;20042;-68
2021/12/01 09:31:13;;;;;;;0.73;0.40;;;;;;;24.73;9.13;97866.72;5095940;28;20036;-70
2021/12/01 09:33:39;;;;;;;0.30;0.30;;;;;;;24.74;9.01;97865.59;5094679;28;20024;-70
2021/12/01 09:36:04;;;;;;;0.20;0.20;;;;;;;24.76;9.02;97866.03;5096499;28;20470;-70
2021/12/01 09:38:30;;;;;;;0.45;0.45;;;;;;;24.78;9.28;97871.16;5076347;28;20031;-69
2021/12/01 09:40:58;;;;;;;0.52;0.43;;;;;;;24.77;9.15;97881.31;5093982;28;20134;-70
2021/12/01 09:43:27;;;;;;;0.52;0.40;;;;;;;24.76;9.20;97876.97;5093105;28;20028;-70
2021/12/01 09:45:56;;;;;;;0.57;0.38;;;;;;;24.76;9.08;97879.69;5075573;28;20101;-70
2021/12/01 09:48:21;;;;;;;0.70;0.30;;;;;;;24.76;8.77;97890.63;5093813;28;20035;-69
2021/12/01 09:50:47;;;;;;;1.10;0.40;;;;;;;24.79;8.47;97880.97;5093533;28;20024;-70
2021/12/01 09:53:13;;;;;;;0.98;0.40;;;;;;;24.79;8.66;97891.88;5093515;28;20351;-70
2021/12/01 09:55:40;;;;;;;0.57;0.30;;;;;;;24.77;8.66;97889.50;5058813;28;20055;-71
2021/12/01 09:58:16;;;;;;;0.40;0.40;;;;;;;24.79;8.57;97891.88;5093602;28;20047;-70
2021/12/01 10:00:44;;;;;;;0.30;0.30;;;;;;;24.83;8.40;97884.59;5093465;28;20035;-69
2021/12/01 10:03:10;;;;;;;0.32;0.30;;;;;;;24.79;8.69;97889.94;5079218;28;20101;-69
2021/12/01 10:06:01;;;;;;;0.30;0.30;;;;;;;24.73;8.36;97891.31;5114727;28;20048;-69
2021/12/01 10:08:35;;;;;;;0.20;0.20;;;;;;;24.82;8.36;97894.72;5117962;28;20027;-69
2021/12/01 10:11:24;;;;;;;0.35;0.30;;;;;;;24.88;8.42;97893.34;5118301;28;20392;-70
2021/12/01 10:13:52;;;;;;;0.30;0.30;;;;;;;24.82;8.57;97900.19;5117976;28;20032;-69
2021/12/01 10:16:18;;;;;;;0.40;0.38;;;;;;;24.83;8.44;97896.31;5118174;28;20063;-69
2021/12/01 10:18:48;;;;;;;0.20;0.20;;;;;;;24.84;8.46;97903.38;5117272;28;20376;-70
2021/12/01 10:21:22;;;;;;;0.40;0.30;;;;;;;24.89;8.58;97911.34;5099558;28;20369;-69
2021/12/01 10:24:11;;;;;;;0.22;0.20;;;;;;;24.86;8.59;97913.97;5117684;28;20099;-69
2021/12/01 10:26:42;;;;;;;2.33;0.40;;;;;;;24.92;8.86;97909.84;5116900;28;20106;-70
2021/12/01 10:29:20;;;;;;;1.48;0.30;;;;;;;24.90;8.73;97915.63;5118552;28;20087;-70
2021/12/01 10:31:53;;;;;;;0.30;0.22;;;;;;;24.97;9.01;97914.28;5117693;28;20036;-70
2021/12/01 10:34:18;;;;;;;2.00;0.30;;;;;;;24.94;8.67;97921.25;5117535;28;20051;-70
2021/12/01 10:36:45;;;;;;;0.70;0.50;;;;;;;24.96;8.54;97916.22;5117807;28;20108;-71
2021/12/01 10:39:10;;;;;;;0.30;0.30;;;;;;;24.97;8.66;97919.75;5117641;28;20024;-69
2021/12/01 10:41:37;;;;;;;0.60;0.35;;;;;;;24.93;8.99;97923.16;5117517;28;20028;-71
2021/12/01 10:44:09;;;;;;;0.30;0.30;;;;;;;24.99;8.86;97925.66;5099516;28;20063;-70
2021/12/01 10:46:49;;;;;;;1.95;0.40;;;;;;;25.05;8.94;97916.09;5118414;28;20051;-70
2021/12/01 10:49:15;;;;;;;0.68;0.50;;;;;;;25.03;8.78;97921.13;5117319;28;20397;-71
2021/12/01 10:51:43;;;;;;;0.82;0.35;;;;;;;25.01;8.72;97926.09;5119413;28;20032;-70
2021/12/01 10:54:16;;;;;;;0.30;0.30;;;;;;;25.01;8.39;97926.09;5117464;28;20030;-70
2021/12/01 10:56:41;;;;;;;0.77;0.50;;;;;;;25.03;8.55;97929.31;5117742;28;20019;-68
2021/12/01 10:59:15;;;;;;;0.40;0.40;;;;;;;25.03;8.71;97941.03;5101986;28;20271;-69
2021/12/01 11:01:40;;;;;;;1.17;0.40;;;;;;;25.06;8.32;97936.81;5118595;28;20023;-69
2021/12/01 11:04:06;;;;;;;0.77;0.60;;;;;;;25.05;8.52;97935.22;5114242;28;20046;-69
2021/12/01 11:06:37;;;;;;;0.68;0.50;;;;;;;24.98;8.47;97940.47;5097987;28;20024;-70
2021/12/01 11:09:02;;;;;;;1.13;0.68;;;;;;;25.06;8.42;97945.00;5078648;28;20483;-69
2021/12/01 11:11:38;;;;;;;0.50;0.47;;;;;;;25.03;8.27;97946.50;5095815;28;20024;-69
2021/12/01 11:14:08;;;;;;;0.80;0.50;;;;;;;25.02;8.58;97944.09;5096036;28;20052;-69
2021/12/01 11:16:36;;;;;;;2.10;0.60;;;;;;;25.10;8.64;97951.38;5095261;28;20459;-69
2021/12/01 11:19:01;;;;;;;0.73;0.50;;;;;;;25.08;8.82;97934.53;5095568;28;20044;-69
2021/12/01 11:21:30;;;;;;;1.23;0.40;;;;;;;25.10;8.47;97945.91;5095201;28;20450;-70
2021/12/01 11:24:00;;;;;;;0.68;0.40;;;;;;;25.11;8.71;97942.84;5095737;28;20024;-70
2021/12/01 11:26:29;;;;;;;1.30;0.50;;;;;;;25.09;8.57;97949.78;5095891;28;20024;-70
2021/12/01 11:28:57;;;;;;;0.50;0.50;;;;;;;25.08;8.70;97950.94;5077338;28;20135;-69
2021/12/01 11:31:57;;;;;;;0.88;0.47;;;;;;;25.12;8.79;97943.63;5095522;28;20055;-69
2021/12/01 11:34:22;;;;;;;2.95;0.50;;;;;;;25.17;8.46;97946.13;4993339;28;20039;-69
2021/12/01 11:36:49;;;;;;;0.65;0.57;;;;;;;25.08;8.59;97950.94;4993813;28;20030;-70
2021/12/01 11:39:22;;;;;;;0.45;0.40;;;;;;;25.09;8.64;97955.25;4993375;28;20413;-70
2021/12/01 11:41:48;;;;;;;1.27;0.50;;;;;;;25.15;8.76;97959.34;4978229;28;20108;-70
2021/12/01 11:44:14;;;;;;;3.03;0.80;;;;;;;25.18;9.02;97963.31;4977737;28;20034;-70